Bookmark and Share
Track history (hours):
 

Jj Sky

Last reported at 2014-Apr-14 22:34 UTC. Time now 2014-Apr-19 01:58 UTC.
Position N 35°00' E 139°32'.

Length 148 m; draft 7.2 m.

Type: Ship. MMSI: 477397500.

NotesDate/timePositionNaut miles runAvg speedWind from/ knotsBaromVisibWave heightAir tempDewpointWater temp
2014-Apr-14 22:34N 35°00' E 139°32'1616.3
2014-Apr-14 21:34N 35°11' E 139°46'1313.4
2014-Apr-14 20:34N 35°24' E 139°43'3 3.2
2014-Apr-14 19:31N 35°27' E 139°41'0 0.0
2014-Apr-14 18:33N 35°27' E 139°41'0 0.0
2014-Apr-14 17:33N 35°27' E 139°41'0 0.0
2014-Apr-14 16:33N 35°27' E 139°41'0 0.1
2014-Apr-14 15:32N 35°27' E 139°41'0 0.1
2014-Apr-14 14:32N 35°27' E 139°41'0 0.0
2014-Apr-14 13:31N 35°27' E 139°41'9 4.4
2014-Apr-14 11:33N 35°31' E 139°51'7 6.2
2014-Apr-14 10:30N 35°36' E 139°47'0 0.0
2014-Apr-14 08:29N 35°36' E 139°47'0 0.0
2014-Apr-13 22:27N 35°36' E 139°47'6 6.8
2014-Apr-13 21:33N 35°32' E 139°52'10 9.6
2014-Apr-13 20:33N 35°23' E 139°46'1212.2
2014-Apr-13 19:33N 35°11' E 139°47'1716.6
2014-Apr-13 18:33N 34°58' E 139°34'  
2014-Apr-11 12:17N 31°16' E 121°54'1013.5
2014-Apr-11 11:32N 31°19' E 121°43'2 1.0
2014-Apr-11 09:08N 31°20' E 121°40'0 0.0
2014-Apr-11 04:12N 31°20' E 121°40'0 0.0
2014-Apr-11 00:23N 31°20' E 121°40'0 0.0
2014-Apr-10 23:12N 31°20' E 121°40'0 0.1
2014-Apr-10 22:18N 31°20' E 121°40'0 0.1
2014-Apr-10 21:25N 31°20' E 121°40'0 0.1
2014-Apr-10 20:12N 31°20' E 121°40'2 0.5
2014-Apr-10 16:23N 31°19' E 121°42'9 8.2
2014-Apr-10 15:18N 31°16' E 121°52'912.0
2014-Apr-10 14:33N 31°14' E 122°03'1312.7
2014-Apr-10 13:33N 31°08' E 122°15'1311.7
2014-Apr-10 12:29N 31°06' E 122°30'1717.8
2014-Apr-10 11:31N 31°07' E 122°50'1918.6
2014-Apr-10 10:31N 31°05' E 123°11'82816.4
2014-Apr-08 08:06N 34°37' E 139°04'1017.5
2014-Apr-08 07:33N 34°44' E 139°12'1817.6
2014-Apr-08 06:33N 34°56' E 139°28'1717.3
2014-Apr-08 05:34N 35°07' E 139°44'1413.8
2014-Apr-08 04:33N 35°21' E 139°42'7 6.6
2014-Apr-08 03:31N 35°27' E 139°41'0 0.0
2014-Apr-08 02:30N 35°27' E 139°41'0 0.0
2014-Apr-08 01:33N 35°27' E 139°41'0 0.0
2014-Apr-08 00:32N 35°27' E 139°41'0 0.0
2014-Apr-07 23:29N 35°27' E 139°41'1 0.9
2014-Apr-07 22:33N 35°28' E 139°42'8 8.3
2014-Apr-07 21:33N 35°33' E 139°50'4 4.1
2014-Apr-07 20:33N 35°36' E 139°47'0 0.0
2014-Apr-07 19:32N 35°36' E 139°47'0 0.0
2014-Apr-07 17:25N 35°36' E 139°47'0 0.0
2014-Apr-07 16:31N 35°36' E 139°47'0 0.0
2014-Apr-07 15:31N 35°36' E 139°47'0 0.0
2014-Apr-07 14:33N 35°36' E 139°47'0 0.0
2014-Apr-07 13:30N 35°36' E 139°47'0 0.0
2014-Apr-07 12:32N 35°36' E 139°47'0 0.0
2014-Apr-07 11:17N 35°36' E 139°47'0 0.0
2014-Apr-07 10:29N 35°36' E 139°47'0 0.0
2014-Apr-07 09:31N 35°36' E 139°47'0 0.1
2014-Apr-07 08:31N 35°36' E 139°47'0 0.0
2014-Apr-07 07:31N 35°36' E 139°47'0 0.2
2014-Apr-07 06:33N 35°36' E 139°47'9 9.5
2014-Apr-07 05:34N 35°27' E 139°50'1212.0
2014-Apr-07 04:33N 35°15' E 139°47'1615.8
2014-Apr-07 03:33N 35°00' E 139°39'  

Dump ship's entire track history

sailing weather and tide predictions

Jj Sky — VRJA6 — position and weather